Time;durP1;ratioP1;P1;durP2;ratioP2;P2;SDS_P1;SDS_P2;PMS_P1;PMS_P2;Temp;Humidity;BMP_temperature;BMP_pressure;BME280_temperature;BME280_humidity;BME280_pressure;Samples;Min_cycle;Max_cycle;Signal;HPM_P1;HPM_P2
2023/08/19 00:00:55;;;;;;;8.60;6.47;;;;;;;26.60;57.25;101307.75;5042228;28;20081;-35
2023/08/19 00:03:22;;;;;;;9.55;6.90;;;;;;;26.60;57.60;101305.03;5042657;28;20073;-35
2023/08/19 00:05:49;;;;;;;9.65;7.38;;;;;;;26.60;57.46;101296.88;5042061;28;20065;-35
2023/08/19 00:08:15;;;;;;;8.32;6.70;;;;;;;26.60;57.48;101299.59;5045943;28;20079;-35
2023/08/19 00:10:42;;;;;;;8.73;6.75;;;;;;;26.60;57.28;101300.44;5045231;28;20140;-35
2023/08/19 00:13:09;;;;;;;8.15;6.40;;;;;;;26.59;57.60;101296.03;5041304;28;20053;-35
2023/08/19 00:15:35;;;;;;;7.75;6.72;;;;;;;26.59;57.38;101298.75;5043133;28;20049;-35
2023/08/19 00:18:02;;;;;;;10.02;6.88;;;;;;;26.58;57.60;101297.94;5039787;28;20076;-35
2023/08/19 00:20:29;;;;;;;7.97;6.60;;;;;;;26.58;57.36;101291.66;5041508;28;20455;-35
2023/08/19 00:22:56;;;;;;;9.02;6.80;;;;;;;26.59;57.55;101287.88;5043045;28;20507;-35
2023/08/19 00:25:24;;;;;;;7.25;6.30;;;;;;;26.57;57.41;101288.09;5042420;28;20426;-35
2023/08/19 00:27:52;;;;;;;7.20;6.30;;;;;;;26.58;57.47;101281.63;5044301;28;20049;-35
2023/08/19 00:30:18;;;;;;;7.60;6.80;;;;;;;26.57;57.82;101277.22;5044284;28;20053;-35
2023/08/19 00:32:47;;;;;;;7.22;6.35;;;;;;;26.57;57.61;101277.22;5042309;28;20135;-35
2023/08/19 00:35:14;;;;;;;7.72;5.85;;;;;;;26.56;57.57;101283.69;5045839;28;20053;-36
2023/08/19 00:37:41;;;;;;;6.85;6.15;;;;;;;26.56;57.57;101278.25;5043088;28;20045;-35
2023/08/19 00:40:14;;;;;;;6.95;6.25;;;;;;;26.55;57.59;101273.84;5045199;28;20045;-35
2023/08/19 00:42:41;;;;;;;7.45;6.25;;;;;;;26.55;57.70;101279.28;5044281;28;21412;-35
2023/08/19 00:45:09;;;;;;;8.60;6.53;;;;;;;26.55;57.80;101270.28;5044456;28;20045;-35
2023/08/19 00:47:37;;;;;;;8.52;6.57;;;;;;;26.54;57.70;101274.91;5038887;28;20152;-35
2023/08/19 00:50:07;;;;;;;7.50;5.93;;;;;;;26.53;57.77;101278.66;5042768;28;20176;-35
2023/08/19 00:52:35;;;;;;;7.95;6.45;;;;;;;26.51;57.64;101272.56;5042477;28;20114;-35
2023/08/19 00:55:02;;;;;;;9.30;6.88;;;;;;;26.52;57.51;101274.25;5045762;28;20103;-35
2023/08/19 00:57:29;;;;;;;8.00;6.32;;;;;;;26.50;57.53;101270.91;5044702;28;20049;-35
2023/08/19 00:59:56;;;;;;;7.07;6.30;;;;;;;26.50;57.71;101261.91;5043247;28;20103;-35
2023/08/19 01:02:23;;;;;;;7.13;6.10;;;;;;;26.49;57.81;101254.75;5042398;28;20425;-35
2023/08/19 01:04:49;;;;;;;7.82;6.32;;;;;;;26.48;57.77;101270.25;5039979;28;20637;-36
2023/08/19 01:07:28;;;;;;;7.50;6.47;;;;;;;26.48;57.90;101262.09;5041156;28;20069;-35
2023/08/19 01:10:22;;;;;;;7.65;6.20;;;;;;;26.48;58.03;101256.66;5040539;28;20159;-35
2023/08/19 01:12:54;;;;;;;6.50;5.78;;;;;;;26.48;57.88;101250.38;5042738;28;20519;-35
2023/08/19 01:15:25;;;;;;;7.03;5.75;;;;;;;26.47;57.71;101249.53;5039158;28;20049;-35
2023/08/19 01:17:52;;;;;;;7.80;6.22;;;;;;;26.47;57.67;101238.66;5046181;28;20053;-35
2023/08/19 01:20:21;;;;;;;7.72;6.25;;;;;;;26.48;57.67;101247.66;5040411;28;20060;-35
2023/08/19 01:23:07;;;;;;;7.07;6.25;;;;;;;26.45;58.11;101240.72;5038978;28;20046;-35
2023/08/19 01:25:34;;;;;;;8.32;6.18;;;;;;;26.47;57.96;101241.38;5041819;28;20049;-35
2023/08/19 01:28:04;;;;;;;7.97;6.25;;;;;;;26.48;58.12;101234.91;5043863;28;20080;-35
2023/08/19 01:30:33;;;;;;;7.40;6.15;;;;;;;26.47;58.01;101233.22;5044432;28;20045;-35
2023/08/19 01:33:02;;;;;;;7.85;6.15;;;;;;;26.47;58.06;101224.25;5040857;28;20079;-35
2023/08/19 01:35:34;;;;;;;7.50;6.32;;;;;;;26.47;58.09;101225.06;5038273;28;20042;-35
2023/08/19 01:38:09;;;;;;;7.57;6.20;;;;;;;26.46;57.90;101228.00;5039799;28;20092;-35
2023/08/19 01:40:37;;;;;;;8.07;6.38;;;;;;;26.46;57.87;101226.13;5039850;28;20045;-35
2023/08/19 01:43:08;;;;;;;7.38;6.53;;;;;;;26.46;58.16;101217.13;5039666;28;20054;-35
2023/08/19 01:45:35;;;;;;;7.22;5.75;;;;;;;26.46;57.97;101214.41;5041098;28;20099;-35
2023/08/19 01:48:01;;;;;;;7.15;6.25;;;;;;;26.45;58.19;101220.88;5038568;28;21140;-35
2023/08/19 01:50:28;;;;;;;7.90;6.18;;;;;;;26.45;58.24;101223.59;5044558;28;21614;-35
2023/08/19 01:52:55;;;;;;;7.93;6.32;;;;;;;26.45;58.29;101218.16;5043319;28;20106;-35
2023/08/19 01:55:22;;;;;;;7.40;6.47;;;;;;;26.44;58.39;101230.03;5042921;28;20049;-35
2023/08/19 01:57:48;;;;;;;6.65;5.90;;;;;;;26.43;57.94;101221.06;5045539;28;20045;-35
2023/08/19 02:00:15;;;;;;;7.03;6.10;;;;;;;26.45;58.11;101226.31;5044335;28;20569;-35
2023/08/19 02:02:43;;;;;;;8.10;6.30;;;;;;;26.43;58.10;101218.31;5043901;28;20129;-35
2023/08/19 02:05:13;;;;;;;8.27;6.07;;;;;;;26.43;58.10;101221.06;5048285;28;20051;-35
2023/08/19 02:07:40;;;;;;;7.25;5.90;;;;;;;26.43;58.19;101217.50;5047648;28;20127;-35
2023/08/19 02:10:08;;;;;;;7.63;6.13;;;;;;;26.43;58.20;101217.50;5048710;28;20140;-35
2023/08/19 02:12:34;;;;;;;7.75;6.50;;;;;;;26.43;57.66;101209.34;5051020;28;20385;-35
2023/08/19 02:15:01;;;;;;;8.85;6.97;;;;;;;26.43;58.02;101207.47;5047938;28;20053;-35
2023/08/19 02:17:27;;;;;;;8.43;5.93;;;;;;;26.42;57.80;101208.50;5048133;28;20088;-35
2023/08/19 02:19:54;;;;;;;7.35;6.47;;;;;;;26.43;57.91;101204.75;5048641;28;20053;-35
2023/08/19 02:22:21;;;;;;;8.13;5.95;;;;;;;26.43;57.94;101203.91;5046201;28;20056;-35
2023/08/19 02:24:47;;;;;;;7.18;6.40;;;;;;;26.43;58.17;101202.03;5045511;28;20474;-35
2023/08/19 02:27:15;;;;;;;7.05;5.68;;;;;;;26.43;57.94;101207.47;5043853;28;20479;-35
2023/08/19 02:29:42;;;;;;;7.60;6.07;;;;;;;26.45;58.03;101201.84;5042676;28;20110;-35
2023/08/19 02:32:08;;;;;;;6.70;6.00;;;;;;;26.45;58.06;101199.13;5037270;28;20580;-35
2023/08/19 02:34:35;;;;;;;8.52;6.05;;;;;;;26.42;57.97;101194.91;5043177;28;20151;-35
2023/08/19 02:37:02;;;;;;;8.70;6.22;;;;;;;26.43;58.01;101185.72;5039479;28;20405;-35
2023/08/19 02:39:29;;;;;;;6.55;5.65;;;;;;;26.43;57.97;101191.16;5040055;28;20124;-35
2023/08/19 02:41:56;;;;;;;7.38;6.13;;;;;;;26.44;57.86;101189.25;5039197;28;20049;-35
2023/08/19 02:44:22;;;;;;;7.35;6.10;;;;;;;26.43;58.13;101191.16;5042221;28;20087;-35
2023/08/19 02:46:49;;;;;;;8.00;6.45;;;;;;;26.43;57.76;101184.88;5038524;28;20055;-35
2023/08/19 02:49:15;;;;;;;7.70;6.20;;;;;;;26.43;57.84;101190.31;5038969;28;20063;-35
2023/08/19 02:51:42;;;;;;;7.03;6.22;;;;;;;26.44;57.97;101191.97;5039527;28;20482;-35
2023/08/19 02:54:11;;;;;;;7.90;6.45;;;;;;;26.42;58.02;101175.88;5044058;28;20049;-35
2023/08/19 02:56:37;;;;;;;7.85;6.20;;;;;;;26.43;58.01;101183.00;5041038;28;20133;-35
2023/08/19 02:59:04;;;;;;;9.68;6.47;;;;;;;26.43;58.11;101174.84;5040636;28;20065;-35
2023/08/19 03:01:31;;;;;;;7.15;6.13;;;;;;;26.43;58.27;101176.72;5041525;28;20486;-35
2023/08/19 03:03:57;;;;;;;6.78;5.80;;;;;;;26.43;57.94;101185.72;5041210;28;20071;-35
2023/08/19 03:06:24;;;;;;;7.20;6.32;;;;;;;26.43;58.09;101183.00;5041751;28;20053;-35
2023/08/19 03:08:51;;;;;;;7.05;6.03;;;;;;;26.43;58.19;101180.28;5041165;28;20049;-35
2023/08/19 03:11:17;;;;;;;10.68;6.53;;;;;;;26.44;58.07;101178.41;5044389;28;20041;-35
2023/08/19 03:13:44;;;;;;;7.13;6.10;;;;;;;26.43;57.90;101174.84;5040712;28;20137;-35
2023/08/19 03:16:10;;;;;;;7.95;6.57;;;;;;;26.42;58.10;101175.88;5037314;28;20041;-35
2023/08/19 03:18:37;;;;;;;8.27;6.63;;;;;;;26.42;58.06;101181.31;5035539;28;20068;-35
2023/08/19 03:21:03;;;;;;;9.70;5.93;;;;;;;26.43;57.90;101174.84;5038453;28;20648;-35
2023/08/19 03:23:30;;;;;;;8.05;6.30;;;;;;;26.43;58.04;101174.00;5039921;28;20049;-35
2023/08/19 03:25:57;;;;;;;7.75;6.63;;;;;;;26.41;57.84;101171.47;5040758;28;20053;-35
2023/08/19 03:28:24;;;;;;;9.05;6.60;;;;;;;26.42;58.06;101180.50;5041492;28;20041;-35
2023/08/19 03:30:51;;;;;;;9.13;6.63;;;;;;;26.41;57.94;101176.91;5037572;28;20146;-35
2023/08/19 03:33:17;;;;;;;11.00;6.60;;;;;;;26.42;58.10;101177.78;5039556;28;20136;-35
2023/08/19 03:35:44;;;;;;;7.60;6.80;;;;;;;26.41;58.12;101167.91;5036838;28;20064;-35
2023/08/19 03:38:13;;;;;;;8.05;6.63;;;;;;;26.40;58.25;101161.63;5044737;28;20380;-35
2023/08/19 03:40:39;;;;;;;7.47;6.07;;;;;;;26.41;57.94;101171.47;5039112;28;20037;-35
2023/08/19 03:43:09;;;;;;;7.63;6.30;;;;;;;26.41;58.00;101167.91;5043452;28;20053;-35
2023/08/19 03:45:36;;;;;;;7.88;6.63;;;;;;;26.40;58.10;101166.25;5039452;28;20110;-35
2023/08/19 03:48:02;;;;;;;6.85;6.07;;;;;;;26.40;57.97;101180.66;5042741;28;20050;-35
2023/08/19 03:50:29;;;;;;;6.75;6.05;;;;;;;26.40;58.16;101168.97;5039655;28;20355;-35
2023/08/19 03:52:56;;;;;;;8.60;6.90;;;;;;;26.41;57.97;101162.47;5043805;28;20140;-35
2023/08/19 03:55:22;;;;;;;8.93;6.97;;;;;;;26.41;57.97;101157.03;5044589;28;20055;-35
2023/08/19 03:57:51;;;;;;;7.05;6.03;;;;;;;26.41;57.91;101176.06;5046357;28;20088;-35
2023/08/19 04:00:18;;;;;;;8.02;6.50;;;;;;;26.40;58.21;101174.41;5041442;28;20492;-35
2023/08/19 04:02:44;;;;;;;8.07;6.93;;;;;;;26.40;58.13;101183.38;5042807;28;20052;-35
2023/08/19 04:05:12;;;;;;;8.50;6.88;;;;;;;26.40;58.37;101175.22;5043230;28;20436;-35
2023/08/19 04:07:39;;;;;;;8.38;6.20;;;;;;;26.41;58.30;101173.34;5043128;28;20103;-35
2023/08/19 04:10:06;;;;;;;7.32;6.50;;;;;;;26.41;58.18;101176.06;5040979;28;20160;-35
2023/08/19 04:12:33;;;;;;;9.23;6.35;;;;;;;26.39;58.16;101170.84;5042950;28;20059;-35
2023/08/19 04:15:00;;;;;;;9.23;6.97;;;;;;;26.39;58.37;101179.00;5041912;28;20045;-35
2023/08/19 04:17:26;;;;;;;8.73;6.18;;;;;;;26.38;58.44;101177.31;5041273;28;20455;-35
2023/08/19 04:19:53;;;;;;;7.65;6.57;;;;;;;26.39;58.25;101172.72;5041823;28;20301;-35
2023/08/19 04:22:20;;;;;;;8.30;6.10;;;;;;;26.38;58.36;101180.06;5040990;28;20106;-35
2023/08/19 04:24:51;;;;;;;8.65;6.60;;;;;;;26.39;58.11;101183.59;5046255;28;20134;-35
2023/08/19 04:27:18;;;;;;;8.05;6.82;;;;;;;26.39;58.27;101189.03;5040065;28;20052;-35
2023/08/19 04:29:45;;;;;;;7.90;6.30;;;;;;;26.38;58.19;101195.53;5038343;28;20048;-35
2023/08/19 04:32:13;;;;;;;8.23;6.15;;;;;;;26.37;58.12;101191.94;5039771;28;20052;-35
2023/08/19 04:34:39;;;;;;;9.15;6.75;;;;;;;26.38;58.27;101196.34;5043791;28;20490;-35
2023/08/19 04:37:07;;;;;;;7.88;6.55;;;;;;;26.38;58.09;101188.19;5039893;28;20112;-35
2023/08/19 04:39:33;;;;;;;7.75;6.50;;;;;;;26.38;58.36;101177.31;5039207;28;20041;-35
2023/08/19 04:42:00;;;;;;;7.63;6.82;;;;;;;26.38;58.05;101182.75;5043187;28;20044;-35
2023/08/19 04:44:27;;;;;;;7.40;6.25;;;;;;;26.38;58.23;101193.63;5039524;28;20123;-35
2023/08/19 04:46:54;;;;;;;8.68;7.63;;;;;;;26.38;58.05;101171.91;5041646;28;20052;-35
2023/08/19 04:49:20;;;;;;;8.25;7.07;;;;;;;26.38;58.15;101171.91;5043904;28;21203;-35
2023/08/19 04:51:47;;;;;;;9.23;6.72;;;;;;;26.38;58.03;101195.53;5040252;28;20045;-35
2023/08/19 04:54:14;;;;;;;9.88;7.00;;;;;;;26.38;58.06;101196.34;5040591;28;20117;-35
2023/08/19 04:56:40;;;;;;;8.32;7.03;;;;;;;26.38;57.89;101190.91;5034954;28;20095;-35
2023/08/19 04:59:07;;;;;;;8.55;6.70;;;;;;;26.37;58.17;101183.78;5038275;28;20148;-35
2023/08/19 05:01:33;;;;;;;8.55;7.10;;;;;;;26.38;58.00;101193.63;5037892;28;20475;-35
2023/08/19 05:04:00;;;;;;;8.40;6.70;;;;;;;26.39;58.15;101191.75;5040624;28;20053;-35
2023/08/19 05:06:27;;;;;;;9.88;7.13;;;;;;;26.38;57.89;101185.47;5040348;28;21536;-35
2023/08/19 05:08:53;;;;;;;9.60;7.80;;;;;;;26.38;58.01;101169.19;5036198;28;20467;-35
2023/08/19 05:11:20;;;;;;;9.32;6.93;;;;;;;26.38;57.92;101180.06;5037193;28;20107;-35
2023/08/19 05:13:46;;;;;;;10.82;7.63;;;;;;;26.38;58.21;101188.19;5038608;28;20116;-36
2023/08/19 05:16:13;;;;;;;11.38;6.90;;;;;;;26.39;57.91;101189.03;5040794;28;20132;-36
2023/08/19 05:18:40;;;;;;;9.57;7.65;;;;;;;26.38;58.19;101185.47;5040552;28;20445;-35
2023/08/19 05:21:06;;;;;;;8.98;7.85;;;;;;;26.39;58.17;101183.59;5040002;28;20135;-35
2023/08/19 05:23:33;;;;;;;9.50;7.32;;;;;;;26.39;58.16;101183.59;5042000;28;20048;-35
2023/08/19 05:25:59;;;;;;;9.73;7.18;;;;;;;26.38;57.89;101185.47;5040082;28;20080;-35
2023/08/19 05:28:26;;;;;;;8.52;7.63;;;;;;;26.38;58.43;101190.09;5042974;28;20131;-35
2023/08/19 05:30:53;;;;;;;9.77;7.45;;;;;;;26.38;58.11;101181.94;5045197;28;20114;-36
2023/08/19 05:33:19;;;;;;;8.38;7.15;;;;;;;26.40;57.98;101196.16;5043742;28;20049;-35
2023/08/19 05:35:46;;;;;;;10.95;7.90;;;;;;;26.39;58.16;101191.75;5039333;28;20164;-35
2023/08/19 05:38:13;;;;;;;8.88;7.13;;;;;;;26.38;57.91;101188.19;5043242;28;20465;-35
2023/08/19 05:40:39;;;;;;;8.80;7.55;;;;;;;26.38;58.40;101196.34;5042104;28;20137;-35
2023/08/19 05:43:06;;;;;;;8.38;7.30;;;;;;;26.38;58.40;101192.81;5042151;28;20049;-35
2023/08/19 05:45:33;;;;;;;9.40;7.15;;;;;;;26.37;58.30;101182.94;5042036;28;20048;-35
2023/08/19 05:48:00;;;;;;;9.48;7.57;;;;;;;26.37;58.26;101186.50;5037461;28;20055;-35
2023/08/19 05:50:27;;;;;;;9.48;7.68;;;;;;;26.38;58.18;101190.91;5040789;28;20045;-35
2023/08/19 05:52:53;;;;;;;9.70;7.53;;;;;;;26.38;58.04;101200.97;5042468;28;20142;-35
2023/08/19 05:55:20;;;;;;;11.60;8.02;;;;;;;26.38;58.31;101209.09;5042028;28;20392;-35
2023/08/19 05:57:46;;;;;;;8.52;7.63;;;;;;;26.38;58.16;101209.94;5041280;28;20087;-35
2023/08/19 06:00:13;;;;;;;9.20;6.93;;;;;;;26.37;58.30;101202.81;5044498;28;20038;-35
2023/08/19 06:02:39;;;;;;;11.05;7.18;;;;;;;26.38;58.30;101200.97;5043243;28;20510;-35
2023/08/19 06:05:07;;;;;;;11.43;7.47;;;;;;;26.38;58.11;101212.66;5042267;28;20049;-35
2023/08/19 06:07:33;;;;;;;9.80;7.45;;;;;;;26.38;58.09;101217.25;5042265;28;20061;-35
2023/08/19 06:10:01;;;;;;;11.13;7.68;;;;;;;26.39;58.27;101227.09;5045437;28;20195;-35
2023/08/19 06:12:27;;;;;;;9.43;7.82;;;;;;;26.39;58.46;101216.22;5042060;28;20049;-35
2023/08/19 06:14:54;;;;;;;10.73;7.32;;;;;;;26.38;58.77;101214.53;5047891;28;20130;-35
2023/08/19 06:17:20;;;;;;;11.98;7.78;;;;;;;26.39;59.06;101208.06;5044035;28;20057;-36
2023/08/19 06:19:47;;;;;;;12.45;7.78;;;;;;;26.39;58.67;101213.50;5049319;28;20045;-35
2023/08/19 06:22:14;;;;;;;15.50;8.65;;;;;;;26.39;58.64;101221.66;5044264;28;20041;-36
2023/08/19 06:24:40;;;;;;;10.60;8.27;;;;;;;26.38;58.64;101226.25;5048492;28;20078;-35
2023/08/19 06:27:07;;;;;;;8.55;7.20;;;;;;;26.38;58.43;101231.69;5044095;28;20073;-35
2023/08/19 06:29:34;;;;;;;10.23;8.07;;;;;;;26.39;58.43;101236.06;5044590;28;20408;-35
2023/08/19 06:32:00;;;;;;;11.05;8.32;;;;;;;26.39;58.81;101230.63;5042428;28;20132;-35
2023/08/19 06:34:27;;;;;;;11.98;8.13;;;;;;;26.40;59.19;101237.75;5043402;28;20063;-35
2023/08/19 06:36:57;;;;;;;11.68;7.78;;;;;;;26.39;58.78;101238.78;5045170;28;20138;-36
2023/08/19 06:39:28;;;;;;;15.00;10.10;;;;;;;26.40;59.10;101240.47;5041873;28;20103;-35
2023/08/19 06:42:03;;;;;;;9.80;8.80;;;;;;;26.41;59.86;101244.03;5040871;28;20052;-35
2023/08/19 06:44:33;;;;;;;14.40;10.07;;;;;;;26.41;59.55;101239.41;5040027;28;20064;-35
2023/08/19 06:47:02;;;;;;;11.13;8.00;;;;;;;26.41;59.34;101228.53;5040004;28;20112;-35
2023/08/19 06:49:29;;;;;;;13.57;9.07;;;;;;;26.43;59.29;101239.25;5041820;28;20052;-35
2023/08/19 06:51:56;;;;;;;15.32;11.75;;;;;;;26.42;59.60;101243.84;5037219;28;20356;-35
2023/08/19 06:54:23;;;;;;;16.73;9.95;;;;;;;26.42;59.61;101251.16;5040238;28;20041;-35
2023/08/19 06:57:09;;;;;;;13.40;9.32;;;;;;;26.43;59.90;101255.56;5040147;28;20068;-35
2023/08/19 06:59:40;;;;;;;10.30;8.73;;;;;;;26.43;59.53;101253.66;5042236;28;20072;-35
2023/08/19 07:02:07;;;;;;;12.75;9.02;;;;;;;26.43;58.98;101248.22;5039827;28;20061;-35
2023/08/19 07:04:35;;;;;;;13.65;9.88;;;;;;;26.44;59.40;101249.06;5042100;28;20699;-35
2023/08/19 07:07:04;;;;;;;14.48;9.70;;;;;;;26.45;59.18;101248.06;5043269;28;20381;-35
2023/08/19 07:09:33;;;;;;;11.35;8.82;;;;;;;26.44;58.64;101249.06;5041051;28;20048;-35
2023/08/19 07:12:01;;;;;;;10.95;8.85;;;;;;;26.45;58.63;101253.50;5044841;28;20080;-35
2023/08/19 07:14:29;;;;;;;13.02;9.05;;;;;;;26.45;58.78;101265.19;5044641;28;20382;-35
2023/08/19 07:17:00;;;;;;;11.45;8.75;;;;;;;26.46;59.21;101269.63;5041852;28;20044;-35
2023/08/19 07:19:42;;;;;;;14.13;9.63;;;;;;;26.45;59.27;101276.06;5042039;28;20049;-35
2023/08/19 07:22:09;;;;;;;12.38;9.38;;;;;;;26.46;58.98;101274.22;5042517;28;20095;-35
2023/08/19 07:24:36;;;;;;;11.02;8.40;;;;;;;26.45;59.13;101273.34;5036641;28;20068;-35
2023/08/19 07:27:04;;;;;;;13.35;9.20;;;;;;;26.46;58.72;101272.34;5039961;28;20400;-35
2023/08/19 07:29:31;;;;;;;13.05;8.85;;;;;;;26.47;58.85;101273.16;5039563;28;20042;-35
2023/08/19 07:31:58;;;;;;;18.73;14.27;;;;;;;26.46;59.19;101263.34;5039163;28;20143;-35
2023/08/19 07:34:25;;;;;;;19.05;12.30;;;;;;;26.47;59.16;101287.59;5040567;28;20433;-35
2023/08/19 07:36:51;;;;;;;13.70;11.90;;;;;;;26.46;58.79;101285.94;5038787;28;20060;-35
2023/08/19 07:39:19;;;;;;;16.98;11.77;;;;;;;26.47;59.18;101289.47;5039268;28;20060;-35
2023/08/19 07:41:46;;;;;;;17.13;11.25;;;;;;;26.47;58.57;101293.03;5041531;28;20136;-35
2023/08/19 07:44:12;;;;;;;14.40;9.43;;;;;;;26.48;58.71;101302.03;5037421;28;20135;-35
2023/08/19 07:46:39;;;;;;;21.20;10.50;;;;;;;26.48;58.72;101312.91;5040871;28;20077;-35
2023/08/19 07:49:05;;;;;;;15.35;10.77;;;;;;;26.50;59.18;101316.28;5043504;28;20049;-35
2023/08/19 07:51:32;;;;;;;15.55;11.95;;;;;;;26.49;59.74;101314.56;5040456;28;20392;-35
2023/08/19 07:53:59;;;;;;;20.30;11.23;;;;;;;26.51;60.09;101315.22;5042890;28;20045;-35
2023/08/19 07:56:25;;;;;;;14.57;10.52;;;;;;;26.49;60.35;101310.00;5041791;28;20056;-35
2023/08/19 07:58:52;;;;;;;16.85;11.10;;;;;;;26.50;60.62;101300.81;5046631;28;20060;-35
2023/08/19 08:01:19;;;;;;;18.30;10.52;;;;;;;26.50;60.70;101306.25;5046927;28;20308;-35
2023/08/19 08:03:47;;;;;;;15.40;10.27;;;;;;;26.50;60.82;101311.69;5042938;28;20057;-35
2023/08/19 08:06:14;;;;;;;13.75;9.95;;;;;;;26.51;60.70;101313.34;5039091;28;20061;-35
2023/08/19 08:08:40;;;;;;;14.40;10.00;;;;;;;26.51;60.56;101302.47;5040700;28;20130;-35
2023/08/19 08:11:07;;;;;;;28.80;11.38;;;;;;;26.51;60.71;101310.63;5042977;28;20095;-35
2023/08/19 08:13:33;;;;;;;18.13;10.95;;;;;;;26.53;60.50;101321.28;5039537;28;20095;-35
2023/08/19 08:16:00;;;;;;;30.05;12.25;;;;;;;26.53;60.90;101333.03;5039954;28;20049;-35
2023/08/19 08:18:27;;;;;;;19.20;10.70;;;;;;;26.54;60.56;101345.59;5038493;28;20494;-35
2023/08/19 08:20:54;;;;;;;24.75;10.13;;;;;;;26.54;59.95;101344.75;5038689;28;20077;-35
2023/08/19 08:23:20;;;;;;;24.42;10.07;;;;;;;26.54;59.87;101348.31;5041708;28;20429;-35
2023/08/19 08:25:47;;;;;;;26.23;10.68;;;;;;;26.56;59.81;101343.50;5040592;28;20068;-35
2023/08/19 08:28:14;;;;;;;24.77;9.68;;;;;;;26.56;59.51;101353.53;5042238;28;20045;-35
2023/08/19 08:30:40;;;;;;;19.23;9.95;;;;;;;26.56;59.34;101338.06;5039036;28;20118;-35
2023/08/19 08:33:08;;;;;;;23.65;10.65;;;;;;;26.56;59.38;101337.22;5040820;28;20622;-35
2023/08/19 08:35:35;;;;;;;19.00;9.98;;;;;;;26.57;58.84;101358.78;5032944;28;20399;-35
2023/08/19 08:38:01;;;;;;;23.05;9.80;;;;;;;26.57;58.84;101364.22;5039722;28;20224;-35
2023/08/19 08:40:30;;;;;;;22.33;11.02;;;;;;;26.57;59.57;101372.38;5037015;28;20092;-35
2023/08/19 08:42:57;;;;;;;20.23;10.60;;;;;;;26.57;60.45;101377.81;5032679;28;20054;-35
2023/08/19 08:45:26;;;;;;;16.73;9.80;;;;;;;26.56;60.45;101381.56;5035037;28;20151;-35
2023/08/19 08:47:54;;;;;;;16.05;10.98;;;;;;;26.58;60.34;101381.38;5038223;28;20049;-35
2023/08/19 08:50:21;;;;;;;21.27;11.43;;;;;;;26.58;60.21;101365.91;5037795;28;20052;-35
2023/08/19 08:52:50;;;;;;;16.10;10.70;;;;;;;26.58;60.88;101371.34;5041427;28;20077;-35
2023/08/19 08:55:17;;;;;;;17.90;10.70;;;;;;;26.58;60.72;101376.78;5040799;28;20057;-35
2023/08/19 08:57:43;;;;;;;22.95;11.93;;;;;;;26.59;60.71;101391.22;5040511;28;20401;-35
2023/08/19 09:00:12;;;;;;;23.45;13.00;;;;;;;26.60;60.98;101392.03;5038946;28;20133;-35
2023/08/19 09:02:40;;;;;;;25.55;11.70;;;;;;;26.60;60.96;101402.91;5040027;28;20406;-35
2023/08/19 09:05:07;;;;;;;23.95;13.77;;;;;;;26.60;61.10;101390.16;5036507;28;20046;-35
2023/08/19 09:07:41;;;;;;;20.88;10.95;;;;;;;26.62;61.08;101400.84;5036608;28;20487;-35
2023/08/19 09:10:13;;;;;;;19.83;11.88;;;;;;;26.63;61.00;101418.84;5040342;28;20130;-35
2023/08/19 09:12:43;;;;;;;19.55;11.07;;;;;;;26.65;60.18;101416.75;5043468;28;20045;-35
2023/08/19 09:15:13;;;;;;;17.10;11.07;;;;;;;26.67;60.33;101428.28;5043643;28;20080;-35
2023/08/19 09:17:40;;;;;;;16.30;11.30;;;;;;;26.68;60.04;101419.94;5043068;28;20107;-35
2023/08/19 09:20:08;;;;;;;17.40;10.60;;;;;;;26.69;59.75;101423.47;5039782;28;20076;-35
2023/08/19 09:22:37;;;;;;;16.35;10.90;;;;;;;26.70;60.04;101426.03;5041788;28;20049;-35
2023/08/19 09:25:07;;;;;;;18.35;10.77;;;;;;;26.71;60.09;101440.47;5037517;28;20122;-35
2023/08/19 09:27:33;;;;;;;16.73;11.43;;;;;;;26.71;59.68;101444.00;5040023;28;20087;-35
2023/08/19 09:30:00;;;;;;;19.42;10.70;;;;;;;26.72;59.42;101445.69;5039285;28;20131;-35
2023/08/19 09:32:31;;;;;;;19.38;10.30;;;;;;;26.73;59.69;101458.25;5038192;28;20045;-35
2023/08/19 09:35:11;;;;;;;15.32;10.35;;;;;;;26.73;59.35;101455.53;5041262;28;20140;-35
2023/08/19 09:37:40;;;;;;;13.45;9.50;;;;;;;26.75;59.21;101477.09;5038565;28;20048;-35
2023/08/19 09:40:10;;;;;;;15.50;10.48;;;;;;;26.74;59.31;101481.72;5043143;28;20099;-35
2023/08/19 09:42:39;;;;;;;15.48;9.95;;;;;;;26.75;59.41;101493.41;5041967;28;20091;-35
2023/08/19 09:45:07;;;;;;;15.52;10.00;;;;;;;26.75;59.53;101501.59;5038869;28;20104;-35
2023/08/19 09:47:48;;;;;;;16.30;9.32;;;;;;;26.75;60.34;101496.16;5038501;28;20118;-35
2023/08/19 09:50:17;;;;;;;12.70;8.40;;;;;;;26.75;59.96;101505.13;5040698;28;20440;-35
2023/08/19 09:52:58;;;;;;;11.73;7.75;;;;;;;26.76;60.27;101503.25;5038004;28;20045;-35
2023/08/19 09:55:27;;;;;;;11.05;7.95;;;;;;;26.78;60.42;101510.19;5039590;28;20049;-36
2023/08/19 09:57:54;;;;;;;11.93;7.97;;;;;;;26.79;60.39;101500.16;5039675;28;20045;-35
2023/08/19 10:00:22;;;;;;;11.73;6.88;;;;;;;26.77;60.50;101502.22;5035682;28;20395;-35
2023/08/19 10:02:49;;;;;;;9.10;6.22;;;;;;;26.76;60.33;101501.38;5037248;28;20099;-35
2023/08/19 10:05:16;;;;;;;15.27;7.28;;;;;;;26.76;59.89;101503.25;5041604;28;20076;-35
2023/08/19 10:07:52;;;;;;;11.65;6.10;;;;;;;26.74;59.87;101510.78;5035909;28;20115;-35
2023/08/19 10:10:20;;;;;;;8.88;5.32;;;;;;;26.75;59.64;101517.91;5039592;28;20408;-35
2023/08/19 10:12:51;;;;;;;11.45;5.78;;;;;;;26.75;59.13;101523.34;5037830;28;20132;-35
2023/08/19 10:15:20;;;;;;;12.27;5.82;;;;;;;26.75;58.65;101526.91;5039984;28;20045;-35
2023/08/19 10:17:50;;;;;;;12.10;6.40;;;;;;;26.75;58.86;101532.34;5041106;28;20157;-35
2023/08/19 10:20:22;;;;;;;9.82;5.95;;;;;;;26.75;58.27;101518.75;5040972;28;20443;-35
2023/08/19 10:22:53;;;;;;;10.90;5.70;;;;;;;26.76;58.19;101528.56;5040185;28;20053;-35
2023/08/19 10:25:21;;;;;;;7.65;5.32;;;;;;;26.76;57.71;101519.56;5040391;28;20770;-35
2023/08/19 10:27:48;;;;;;;8.43;5.35;;;;;;;26.77;58.00;101537.56;5041230;28;20391;-35
2023/08/19 10:30:24;;;;;;;8.48;4.90;;;;;;;26.76;57.44;101544.06;5035938;28;20038;-36
2023/08/19 10:32:51;;;;;;;7.50;4.43;;;;;;;26.76;57.87;101555.78;5042338;28;20463;-36
2023/08/19 10:35:17;;;;;;;7.82;5.20;;;;;;;26.76;57.37;101568.53;5038006;28;20060;-35
2023/08/19 10:37:50;;;;;;;10.15;5.25;;;;;;;26.75;57.08;101575.84;5037199;28;20052;-35
2023/08/19 10:40:22;;;;;;;8.00;4.78;;;;;;;26.74;57.55;101574.19;5043221;28;20385;-35
2023/08/19 10:42:59;;;;;;;8.40;5.03;;;;;;;26.74;57.40;101582.34;5044880;28;20041;-36
2023/08/19 10:45:35;;;;;;;8.68;4.47;;;;;;;26.74;57.41;101579.63;5047037;28;20107;-35
2023/08/19 10:48:02;;;;;;;6.43;4.50;;;;;;;26.75;57.79;101575.00;5044061;28;20114;-35
2023/08/19 10:50:35;;;;;;;7.07;4.70;;;;;;;26.74;57.67;101568.75;5041669;28;20048;-35
2023/08/19 10:53:06;;;;;;;7.63;4.68;;;;;;;26.75;58.17;101573.13;5039461;28;20045;-35
2023/08/19 10:55:55;;;;;;;5.82;4.10;;;;;;;26.74;57.88;101587.78;5039035;28;20049;-35
2023/08/19 10:58:22;;;;;;;8.23;4.30;;;;;;;26.75;57.26;101589.44;5038383;28;20428;-35
2023/08/19 11:00:49;;;;;;;8.45;5.10;;;;;;;26.75;57.36;101588.63;5043336;28;20057;-35
2023/08/19 11:03:16;;;;;;;7.85;4.68;;;;;;;26.75;57.44;101575.00;5041126;28;20388;-35
2023/08/19 11:05:50;;;;;;;7.03;4.70;;;;;;;26.74;57.43;101584.22;5040532;28;20103;-36
2023/08/19 11:08:17;;;;;;;8.95;5.22;;;;;;;26.76;57.43;101599.28;5033905;28;20144;-35
2023/08/19 11:10:45;;;;;;;10.23;5.63;;;;;;;26.76;57.53;101610.16;5040556;28;20110;-35
2023/08/19 11:13:13;;;;;;;9.63;5.53;;;;;;;26.76;57.77;101628.38;5039233;28;20045;-35
2023/08/19 11:15:43;;;;;;;8.98;5.25;;;;;;;26.76;57.37;101636.53;5036400;28;20132;-36
2023/08/19 11:18:19;;;;;;;10.27;5.38;;;;;;;26.74;57.45;101631.28;5037532;28;20045;-35
2023/08/19 11:20:45;;;;;;;9.57;6.18;;;;;;;26.74;57.52;101638.63;5038617;28;20092;-35
2023/08/19 11:23:12;;;;;;;11.23;5.93;;;;;;;26.75;57.12;101648.44;5037898;28;20507;-35
2023/08/19 11:25:38;;;;;;;9.77;5.90;;;;;;;26.73;57.31;101664.94;5033919;28;20148;-35